Terminal Aerodrome Forecast
Issued by NWS

Home | Current Version | Previous Version | Text Only | Print | Product List | Glossary On
Versions: 1 2 3 4 5 6 7 8 9 10 11 12 13 14 15 16 17 18 19 20 21 22 23 24 25 26 27 28
000
FTUS46 KPDT 262300
TAFALW
TAF
KALW 262331Z 2700/2724 VRB04KT 1/2SM FG OVC002
      TEMPO 2700/2703 1SM BR OVC004
     FM270600 VRB04KT 1/4SM FG VV002
     FM271800 20004KT 3SM BR OVC005=

USA.gov is the U.S. government's official web portal to all federal, state and local government web resources and services.